Terminal Aerodrome Forecast
Issued by NWS

Home | Current Version | Previous Version | Text Only | Print | Product List | Glossary Off
Versions: 1 2 3 4 5 6 7 8 9 10 11 12

000
FTUS43 KICT 191120
TAFSLN
TAF
KSLN 191120Z 1912/2012 31006KT P6SM SCT250
     FM191500 34010KT P6SM SCT250
     FM200000 VRB04KT P6SM SCT250
     FM200600 15005KT P6SM SCT250=

USA.gov is the U.S. government's official web portal to all federal, state and local government web resources and services.